福岡空港の過去48時間の天気

福岡空港 (Fukuoka)

現在時刻: 6/3 20:54 JST (6/3 11:54 UTC) 以下の時間は現地時間です。

過去48時間のMETAR気象情報
時間 風向 風速(m/s) 視程 気温(℃) 湿度(%) 気圧(hPa) 天気現象
3 20:30 南南東 5 10km以上 24 78 1005
3 20:00 南南東 5 10km以上 24 78 1005
3 19:30 不定 1 10km以上 24 78 1005
3 19:00 不定 1 10km以上 24 74 1004
3 18:30 北北西 2 10km以上 24 74 1004
3 18:00 北北西 2 10km以上 24 74 1004
3 17:30 西北西 4 10km以上 25 69 1004
3 17:00 南南東 4 10km以上 25 74 1004
3 16:30 南南東 7 10km以上 26 70 1004
3 16:00 南南東 7 10km以上 25 69 1003
3 15:30 南南東 8 10km以上 25 61 1003
3 15:00 南南東 9 10km以上 25 69 1003
3 14:30 南東 8 10km以上 25 74 1004
3 14:00 南東 8 10km以上 24 74 1004
3 13:30 南東 5 10km以上 24 78 1004 弱い雨
3 13:00 南東 5 10km以上 25 69 1005 弱い雨
3 12:30 南東 5 10km以上 25 61 1005 弱い雨
3 12:00 南東 4 10km以上 25 61 1006
3 11:30 南東 4 10km以上 25 65 1006
3 11:00 南南東 4 10km以上 25 61 1006
3 10:30 南南東 4 10km以上 25 65 1006
3 10:00 南南東 5 10km以上 25 65 1006
3 09:30 南南東 4 10km以上 25 65 1006
3 09:00 南南東 6 10km以上 25 69 1006
3 08:30 南南東 5 10km以上 24 69 1006
3 08:00 南南東 4 10km以上 23 73 1006
3 07:30 南東 5 10km以上 22 78 1006
3 07:00 南南東 5 10km以上 22 78 1005
3 06:30 南東 4 10km以上 22 78 1006
3 06:00 東南東 3 10km以上 21 83 1005
3 05:30 南東 3 10km以上 21 83 1006
3 05:00 東南東 2 10km以上 20 88 1006
3 04:30 南東 5 10km以上 21 83 1006
3 04:00 南東 4 10km以上 21 83 1006
3 03:30 南東 5 10km以上 21 83 1006
3 03:00 南南東 6 10km以上 21 83 1006
3 02:30 南東 4 10km以上 21 83 1006
3 02:00 南南東 6 10km以上 21 78 1006
3 01:30 南南東 6 10km以上 21 78 1006
3 01:00 南南東 6 10km以上 21 78 1006
3 00:30 南南東 5 10km以上 21 78 1007
3 00:00 南南東 4 10km以上 22 73 1007
2 23:30 南南東 4 10km以上 22 69 1007
2 23:00 南南東 5 10km以上 22 69 1007
2 22:30 南南東 5 10km以上 22 69 1007
2 22:00 南南東 5 10km以上 22 69 1007
2 21:30 南東 4 10km以上 22 69 1007
2 21:00 南東 3 10km以上 21 69 1007
2 20:30 2 10km以上 22 69 1008
2 20:00 2 10km以上 22 69 1007
2 19:30 北西 2 10km以上 22 69 1008
2 19:00 北北西 3 10km以上 23 65 1008
2 18:30 北北西 3 10km以上 23 61 1007
2 18:00 北北西 4 10km以上 24 57 1007
2 17:30 北北西 4 10km以上 24 61 1007
2 17:00 北西 4 10km以上 24 61 1007
2 16:30 北西 5 10km以上 24 61 1007
2 16:00 北西 6 10km以上 25 54 1007
2 15:30 西北西 5 10km以上 25 57 1007
2 15:00 北北西 6 10km以上 26 58 1008
2 14:30 北西 6 10km以上 25 61 1007
2 14:00 北西 5 10km以上 27 51 1007
2 13:30 北西 5 10km以上 26 54 1008
2 13:00 北西 5 10km以上 27 48 1008
2 12:30 北西 5 10km以上 27 45 1008
2 12:00 北西 4 10km以上 27 48 1009
2 11:30 北西 5 10km以上 26 48 1009
2 11:00 不定 2 10km以上 25 54 1009
2 10:30 不定 2 10km以上 25 54 1009
2 10:00 不定 1 10km以上 25 44 1009
2 09:30 南南東 2 10km以上 24 57 1010
2 09:00 南南東 2 10km以上 23 57 1010
2 08:30 南南東 3 10km以上 22 65 1010
2 08:00 南南東 4 10km以上 21 69 1010
2 07:30 南東 4 10km以上 20 78 1010
2 07:00 南東 5 10km以上 19 83 1010
2 06:30 南東 3 10km以上 18 83 1009
2 06:00 南南東 2 10km以上 17 94 1009
2 05:30 南南東 2 10km以上 17 94 1009
2 05:00 南南東 2 10km以上 16 94 1010
2 04:30 不定 1 10km以上 16 94 1009
2 04:00 南東 2 10km以上 17 94 1009
2 03:30 東南東 2 10km以上 17 94 1009
2 03:00 不定 1 10km以上 17 94 1009
2 02:30 不定 1 10km以上 18 94 1009
2 02:00 南南東 2 10km以上 18 94 1009
2 01:30 南東 2 10km以上 19 94 1009
2 01:00 南東 2 10km以上 19 94 1009
2 00:30 南南東 3 10km以上 19 94 1009
2 00:00 南西 2 10km以上 20 88 1009
1 23:30 西北西 4 10km以上 20 88 1010
1 21:30 北東 2 10km以上 21 83 1009
1 21:00 北東 2 10km以上 21 88 1009
RJFF 031130Z 15009KT 9999 FEW020 BKN035 BKN/// 24/20 Q1005 NOSIG RMK 1CU020 5CU035 A2968
RJFF 031100Z 15010KT 9999 FEW020 BKN035 BKN/// 24/20 Q1005 NOSIG RMK 1CU020 5CU035 A2969
RJFF 031030Z VRB01KT 9999 FEW020 SCT035 BKN/// 24/20 Q1005 BECMG 14005KT RMK 1CU020 3CU035 A2968
RJFF 031000Z VRB02KT 9999 FEW020 SCT180 BKN/// 24/19 Q1004 BECMG 14005KT RMK 1CU020 4AC180 A2967
RJFF 030930Z 33004KT 9999 FEW020 SCT180 BKN/// 24/19 Q1004 BECMG 14005KT RMK 1CU020 4AC180 A2967
RJFF 030900Z 33004KT 9999 FEW020 SCT035 BKN/// 24/19 Q1004 BECMG 14005KT
RJFF 030830Z 29008KT 9999 FEW020 SCT035 BKN180 25/19 Q1004 NOSIG RMK 1CU020 3CU035 6AC180 A2966
RJFF 030800Z 16008KT 120V200 9999 FEW020 SCT035 BKN180 25/20 Q1004 NOSIG RMK 1CU020 3CU035 5AC180 A2966
RJFF 030730Z 15013KT 9999 FEW020 SCT180 BKN/// 26/20 Q1004 NOSIG
RJFF 030700Z 15014KT 9999 FEW020 BKN180 OVC/// 25/19 Q1003 NOSIG
RJFF 030630Z 15016KT 9999 FEW020 BKN180 BKN/// 25/17 Q1003 NOSIG RMK 1CU020 6AC180 A2964
RJFF 030600Z 15017KT 9999 FEW020 SCT170 BKN180 25/19 Q1003 NOSIG RMK 1CU020 3AC170 6AC180 A2963
RJFF 030530Z 14015KT 9999 FEW025 SCT150 BKN180 25/20 Q1004 NOSIG RMK 1CU025 3AC150 6AC180 A2966
RJFF 030500Z 14016KT 9999 FEW015 SCT100 BKN150 24/19 Q1004 NOSIG RMK 1CU015 4AC100 6AC150 A2966
RJFF 030430Z 13010KT 110V170 9999 -RA FEW015 BKN035 BKN100 24/20 Q1004 NOSIG RMK 1CU015 5CU035 6AC100 A2966
RJFF 030400Z 14010KT 9999 -RA FEW020 SCT080 BKN100 25/19 Q1005 NOSIG RMK 1CU020 3AC080 6AC100 A2969
RJFF 030330Z 14010KT 9999 -RA FEW030 BKN050 BKN100 25/17 Q1005 NOSIG RMK 1CU030 5SC050 6AC100 A2970
RJFF 030300Z 14008KT 9999 FEW030 SCT045 BKN050 25/17 Q1006 NOSIG RMK 1CU030 3CU045 5SC050 A2972
RJFF 030230Z 13008KT 9999 FEW030 SCT035 BKN045 25/18 Q1006 NOSIG RMK 1CU030 3CU035 5CU045 A2972
RJFF 030200Z 15007KT 9999 FEW030 SCT035 BKN040 25/17 Q1006 NOSIG RMK 1CU030 4CU035 5CU040 A2972
RJFF 030130Z 16007KT 120V180 9999 FEW030 BKN035 BKN/// 25/18 Q1006 NOSIG
RJFF 030100Z 16009KT 140V210 9999 FEW030 SCT035 BKN/// 25/18 Q1006 NOSIG RMK 1CU030 4CU035 A2971
RJFF 030030Z 15008KT 9999 FEW030 SCT040 BKN/// 25/18 Q1006 NOSIG
RJFF 030000Z 16011KT 9999 FEW025 BKN035 BKN040 25/19 Q1006 NOSIG RMK 1CU025 5CU035 6CU040 A2972
RJFF 022330Z 16009KT 9999 FEW025 SCT040 BKN/// 24/18 Q1006 NOSIG
RJFF 022300Z 15008KT 9999 FEW025 BKN040 BKN/// 23/18 Q1006 NOSIG RMK 1CU025 5CU040 A2972
RJFF 022230Z 14009KT 9999 FEW020 SCT040 BKN/// 22/18 Q1006 NOSIG RMK 1CU020 4CU040 A2972
RJFF 022200Z 15009KT 9999 FEW020 BKN/// 22/18 Q1005 NOSIG RMK 1CU020 A2970
RJFF 022130Z 14008KT 9999 FEW020 BKN/// 22/18 Q1006 NOSIG RMK 1CU020 A2971
RJFF 022100Z 12005KT 090V170 9999 FEW020 BKN/// 21/18 Q1005 NOSIG
RJFF 022030Z AUTO 14006KT 9999 NCD 21/18 Q1006 NOSIG RMK A2971
RJFF 022000Z AUTO 12004KT 070V150 9999 NCD 20/18 Q1006 NOSIG
RJFF 021930Z AUTO 14010KT 9999 NCD 21/18 Q1006 NOSIG RMK A2971
RJFF 021900Z AUTO 13008KT 9999 NCD 21/18 Q1006 NOSIG RMK A2972
RJFF 021830Z AUTO 14009KT 9999 NCD 21/18 Q1006 NOSIG RMK A2973
RJFF 021800Z AUTO 15011KT 9999 NCD 21/18 Q1006 NOSIG RMK A2972
RJFF 021730Z AUTO 14008KT 9999 NCD 21/18 Q1006 NOSIG RMK A2972
RJFF 021700Z AUTO 15011KT 9999 NCD 21/17 Q1006 NOSIG RMK A2973
RJFF 021630Z AUTO 15011KT 9999 NCD 21/17 Q1006 NOSIG RMK A2972
RJFF 021600Z AUTO 15012KT 9999 NCD 21/17 Q1006 NOSIG RMK A2973
RJFF 021530Z AUTO 15010KT 9999 NCD 21/17 Q1007 NOSIG RMK A2974
RJFF 021500Z AUTO 15008KT 9999 NCD 22/17 Q1007 NOSIG RMK A2974
RJFF 021430Z AUTO 15008KT 9999 NCD 22/16 Q1007 NOSIG RMK A2975
RJFF 021400Z AUTO 15010KT 9999 NCD 22/16 Q1007 NOSIG RMK A2975
RJFF 021330Z 15009KT CAVOK 22/16 Q1007 NOSIG RMK A2975
RJFF 021300Z 15010KT CAVOK 22/16 Q1007 NOSIG RMK A2976
RJFF 021230Z 14007KT CAVOK 22/16 Q1007 NOSIG RMK A2976
RJFF 021200Z 13005KT CAVOK 21/15 Q1007 NOSIG RMK A2976
RJFF 021130Z 08003KT 040V110 CAVOK 22/16 Q1008 NOSIG RMK A2977
RJFF 021100Z 10004KT 050V130 CAVOK 22/16 Q1007 NOSIG RMK A2976
RJFF 021030Z 31003KT 230V350 CAVOK 22/16 Q1008 BECMG 14005KT RMK A2977
RJFF 021000Z 33005KT 9999 FEW040 SCT/// 23/16 Q1008 BECMG 14005KT RMK 1CU040 A2977
RJFF 020930Z 33005KT 300V010 9999 FEW040 23/15 Q1007 NOSIG RMK 1CU040 A2976
RJFF 020900Z 33007KT 300V020 9999 FEW040 24/15 Q1007 NOSIG RMK 1CU040 A2976
RJFF 020830Z 34007KT 300V020 9999 FEW040 24/16 Q1007 NOSIG RMK 1CU040 A2975
RJFF 020800Z 32008KT 9999 FEW040 24/16 Q1007 NOSIG RMK 1CU040 A2976
RJFF 020730Z 31010KT 9999 FEW040 SCT/// 24/16 Q1007 NOSIG RMK 1CU040 A2976
RJFF 020700Z 32011KT 280V350 9999 FEW030 25/15 Q1007 NOSIG RMK 1CU030 A2976
RJFF 020630Z 30009KT 260V350 9999 FEW035 25/16 Q1007 NOSIG RMK 1CU035 A2976
RJFF 020600Z 34011KT 9999 FEW035 SCT/// 26/17 Q1008 NOSIG
RJFF 020530Z 32012KT 9999 FEW035 SCT/// 25/17 Q1007 NOSIG
RJFF 020500Z 32010KT 9999 FEW030 SCT/// 27/16 Q1007 NOSIG RMK 1CU030 A2976
RJFF 020430Z 31009KT 280V350 9999 FEW030 SCT/// 26/16 Q1008 NOSIG
RJFF 020400Z 32009KT 9999 FEW030 BKN/// 27/15 Q1008 NOSIG RMK 1CU030 A2977
RJFF 020330Z 32010KT 9999 FEW030 BKN/// 27/14 Q1008 NOSIG
RJFF 020300Z 31007KT 280V350 9999 FEW025 BKN/// 27/15 Q1009 NOSIG
RJFF 020230Z 32010KT 9999 FEW030 BKN/// 26/14 Q1009 NOSIG RMK 1CU030 A2980
RJFF 020200Z VRB04KT 9999 FEW025 BKN/// 25/15 Q1009 BECMG 31011KT RMK 1CU025 A2981
RJFF 020130Z VRB04KT 9999 FEW020 BKN/// 25/15 Q1009 BECMG 31011KT RMK 1CU020 A2982
RJFF 020100Z VRB02KT 9999 FEW020 BKN/// 25/12 Q1009 BECMG 30010KT
RJFF 020030Z 16003KT 070V220 9999 FEW020 BKN/// 24/15 Q1010 BECMG FM0100 30010KT RMK 1CU020 A2983
RJFF 020000Z 15003KT 070V210 9999 FEW020 BKN/// 23/14 Q1010 BECMG FM0100 30010KT RMK 1CU020 A2984
RJFF 012330Z 15005KT 110V190 9999 FEW020 BKN/// 22/15 Q1010 BECMG FM0100 30010KT
RJFF 012300Z 16008KT 9999 FEW015 BKN/// 21/15 Q1010 NOSIG
RJFF 012230Z 14008KT 9999 FEW015 BKN/// 20/16 Q1010 NOSIG
RJFF 012200Z 14009KT 9999 FEW015 SCT/// 19/16 Q1010 NOSIG RMK 1CU015 A2982
RJFF 012130Z 14005KT 9999 FEW040 BKN/// 18/15 Q1009 NOSIG RMK 1CU040 A2982
RJFF 012100Z 15004KT CAVOK 17/16 Q1009 NOSIG RMK A2982
RJFF 012030Z AUTO 15003KT 9999 NCD 17/16 Q1009 NOSIG RMK A2982
RJFF 012000Z AUTO 15004KT 9999 NCD 16/15 Q1010 NOSIG RMK A2982
RJFF 011930Z AUTO VRB02KT 9999 NCD 16/15 Q1009 NOSIG RMK A2982
RJFF 011900Z AUTO 14003KT 100V160 9999 NCD 17/16 Q1009 NOSIG RMK A2982
RJFF 011830Z AUTO 12003KT 100V160 9999 NCD 17/16 Q1009 NOSIG RMK A2982
RJFF 011800Z AUTO VRB02KT 9999 NCD 17/16 Q1009 NOSIG RMK A2982
RJFF 011730Z AUTO VRB02KT 9999 NCD 18/17 Q1009 NOSIG RMK A2982
RJFF 011700Z AUTO 15003KT 9999 NCD 18/17 Q1009 NOSIG RMK A2982
RJFF 011630Z AUTO 13003KT 9999 NCD 19/18 Q1009 NOSIG RMK A2982
RJFF 011600Z AUTO 14004KT 9999 NCD 19/18 Q1009 NOSIG RMK A2982
RJFF 011530Z AUTO 16005KT 140V200 9999 NCD 19/18 Q1009 NOSIG RMK A2982
RJFF 011500Z AUTO 23004KT 9999 NCD 20/18 Q1009 NOSIG RMK A2982
RJFF 011430Z AUTO 29007KT 9999 NCD 20/18 Q1010 NOSIG RMK A2983
RJFF 011230Z 04003KT 9999 FEW010 21/18 Q1009 NOSIG RMK 1ST010 A2982
RJFF 011200Z 04003KT 330V090 9999 FEW010 21/19 Q1009 NOSIG RMK 1ST010 A2980